Time;durP1;ratioP1;P1;durP2;ratioP2;P2;SDS_P1;SDS_P2;PMS_P1;PMS_P2;Temp;Humidity;BMP_temperature;BMP_pressure;BME280_temperature;BME280_humidity;BME280_pressure;Samples;Min_cycle;Max_cycle;Signal;HPM_P1;HPM_P2
2021/06/12 00:02:16;;;;;;;2.22;1.15;;;18.50;82.70;;;;;;5046013;28;20032;-69
2021/06/12 00:04:42;;;;;;;4.20;1.00;;;18.50;82.50;;;;;;5045939;28;20037;-69
2021/06/12 00:07:07;;;;;;;1.50;0.95;;;18.50;82.60;;;;;;5046120;28;20033;-68
2021/06/12 00:09:33;;;;;;;3.10;1.60;;;18.50;82.30;;;;;;5044037;28;20435;-69
2021/06/12 00:11:59;;;;;;;2.38;1.10;;;18.50;82.30;;;;;;5046532;28;20553;-68
2021/06/12 00:14:25;;;;;;;2.65;1.08;;;18.50;82.70;;;;;;5045905;28;20060;-68
2021/06/12 00:16:51;;;;;;;2.08;1.17;;;18.40;82.80;;;;;;5046125;28;20150;-69
2021/06/12 00:19:16;;;;;;;2.00;0.93;;;18.40;83.10;;;;;;5046104;28;20464;-68
2021/06/12 00:21:42;;;;;;;1.90;1.00;;;18.40;83.50;;;;;;5045999;28;20477;-68
2021/06/12 00:24:09;;;;;;;1.83;1.05;;;18.30;83.10;;;;;;5045718;28;20040;-68
2021/06/12 00:26:37;;;;;;;3.25;1.40;;;18.30;83.20;;;;;;5044357;28;20493;-69
2021/06/12 00:29:04;;;;;;;3.97;0.95;;;18.30;83.90;;;;;;5046161;28;20032;-68
2021/06/12 00:31:29;;;;;;;1.40;0.70;;;18.20;83.50;;;;;;5045835;28;20038;-69
2021/06/12 00:33:56;;;;;;;2.17;0.90;;;18.20;83.00;;;;;;5047023;28;20085;-68
2021/06/12 00:36:22;;;;;;;6.68;1.50;;;18.10;82.90;;;;;;5049847;28;20447;-68
2021/06/12 00:38:50;;;;;;;2.72;1.20;;;18.10;82.90;;;;;;5049533;28;20604;-68
2021/06/12 00:41:16;;;;;;;1.60;1.05;;;18.10;83.40;;;;;;5049141;28;20037;-68
2021/06/12 00:43:42;;;;;;;7.03;1.33;;;18.10;83.80;;;;;;5048475;28;20017;-69
2021/06/12 00:46:09;;;;;;;5.28;1.00;;;18.10;84.10;;;;;;5049535;28;20044;-68
2021/06/12 00:48:35;;;;;;;2.72;1.30;;;18.10;83.80;;;;;;5049266;28;20041;-70
2021/06/12 00:51:00;;;;;;;1.55;0.90;;;18.10;83.70;;;;;;5049744;28;20044;-68
2021/06/12 00:53:41;;;;;;;2.55;0.80;;;18.00;83.30;;;;;;5049031;28;20547;-69
2021/06/12 00:56:10;;;;;;;5.38;1.15;;;18.00;82.90;;;;;;5049452;28;20029;-68
2021/06/12 00:58:42;;;;;;;2.28;1.00;;;17.90;82.40;;;;;;5047749;28;20331;-68
2021/06/12 01:01:09;;;;;;;1.50;0.52;;;17.80;82.30;;;;;;5049198;28;20071;-69
2021/06/12 01:03:36;;;;;;;3.33;1.35;;;17.80;82.00;;;;;;5049196;28;20037;-68
2021/06/12 01:06:01;;;;;;;2.40;0.88;;;17.70;81.70;;;;;;5049457;28;20635;-68
2021/06/12 01:08:27;;;;;;;1.00;0.70;;;17.70;82.00;;;;;;5048541;28;20055;-69
2021/06/12 01:10:52;;;;;;;5.80;1.30;;;17.60;82.40;;;;;;5049452;28;20032;-67
2021/06/12 01:13:23;;;;;;;2.45;0.90;;;17.50;82.70;;;;;;5049226;28;20029;-68
2021/06/12 01:15:58;;;;;;;1.65;0.73;;;17.50;83.20;;;;;;5049159;28;20021;-68
2021/06/12 01:18:29;;;;;;;2.28;1.20;;;17.30;83.80;;;;;;5049135;28;20021;-69
2021/06/12 01:21:04;;;;;;;3.22;1.38;;;17.30;84.90;;;;;;5048710;28;20044;-68
2021/06/12 01:24:02;;;;;;;7.18;1.70;;;17.10;86.20;;;;;;5048593;28;20029;-68
2021/06/12 01:26:55;;;;;;;2.42;1.52;;;17.00;87.10;;;;;;5048972;28;20051;-68
2021/06/12 01:29:38;;;;;;;2.35;1.50;;;16.90;87.80;;;;;;5048699;28;20039;-68
2021/06/12 01:32:05;;;;;;;2.80;1.20;;;16.80;87.70;;;;;;5048552;28;20025;-68
2021/06/12 01:34:34;;;;;;;5.15;1.65;;;16.70;88.40;;;;;;5048373;28;20061;-69
2021/06/12 01:37:02;;;;;;;8.23;1.45;;;16.60;88.90;;;;;;5048252;28;20033;-68
2021/06/12 01:39:28;;;;;;;3.70;2.00;;;16.50;88.80;;;;;;5047956;28;20116;-67
2021/06/12 01:41:59;;;;;;;3.15;1.75;;;16.50;88.20;;;;;;5048691;28;20128;-68
2021/06/12 01:44:28;;;;;;;3.80;1.65;;;16.40;88.00;;;;;;5048309;28;20036;-69
2021/06/12 01:46:55;;;;;;;5.53;2.10;;;16.40;87.90;;;;;;5045907;28;20087;-66
2021/06/12 01:49:23;;;;;;;4.82;1.85;;;16.30;87.30;;;;;;5048257;28;20482;-68
2021/06/12 01:51:49;;;;;;;3.03;1.63;;;16.30;87.30;;;;;;5048032;28;20070;-69
2021/06/12 01:54:17;;;;;;;4.43;1.90;;;16.30;87.50;;;;;;5048447;28;20037;-69
2021/06/12 01:56:44;;;;;;;2.60;1.73;;;16.30;88.10;;;;;;5048337;28;20029;-69
2021/06/12 01:59:11;;;;;;;1.98;1.40;;;16.20;88.40;;;;;;5047129;28;20349;-68
2021/06/12 02:01:40;;;;;;;3.10;1.48;;;16.20;88.30;;;;;;5046826;28;20542;-68
2021/06/12 02:04:06;;;;;;;3.22;1.80;;;16.10;88.40;;;;;;5048327;28;20593;-68
2021/06/12 02:06:35;;;;;;;3.42;1.50;;;16.10;88.70;;;;;;5046371;28;20390;-69
2021/06/12 02:09:01;;;;;;;4.25;1.67;;;16.10;89.20;;;;;;5048143;28;20572;-69
2021/06/12 02:11:27;;;;;;;;;;;16.00;89.20;;;;;;5047891;28;20104;-69
2021/06/12 02:13:53;;;;;;;4.83;1.80;;;16.00;90.00;;;;;;5048111;28;19932;-69
2021/06/12 02:16:24;;;;;;;3.55;1.63;;;15.90;90.30;;;;;;5047626;28;20286;-69
2021/06/12 02:18:51;;;;;;;3.35;1.58;;;15.90;90.20;;;;;;5047995;28;20529;-68
2021/06/12 02:21:20;;;;;;;3.72;1.50;;;15.80;90.10;;;;;;5045846;28;20071;-69
2021/06/12 02:23:51;;;;;;;2.22;1.48;;;15.70;90.10;;;;;;5047800;28;20061;-69
2021/06/12 02:26:20;;;;;;;6.10;1.40;;;15.70;90.30;;;;;;5047854;28;20017;-67
2021/06/12 02:28:49;;;;;;;4.70;1.58;;;15.60;90.20;;;;;;5047806;28;20410;-69
2021/06/12 02:31:21;;;;;;;4.78;1.73;;;15.60;90.10;;;;;;5047344;28;20039;-68
2021/06/12 02:33:46;;;;;;;5.93;1.85;;;15.50;90.30;;;;;;5047367;28;20036;-68
2021/06/12 02:36:13;;;;;;;;;;;15.50;90.40;;;;;;5047686;28;20053;-68
2021/06/12 02:38:39;;;;;;;3.00;1.55;;;15.50;90.50;;;;;;5047521;28;20328;-68
2021/06/12 02:41:04;;;;;;;;;;;15.50;90.50;;;;;;5047650;28;20505;-69
2021/06/12 02:43:30;;;;;;;6.38;1.65;;;15.40;90.70;;;;;;5047411;28;19999;-69
2021/06/12 02:45:56;;;;;;;;;;;15.40;90.60;;;;;;5048022;28;20489;-69
2021/06/12 02:48:25;;;;;;;6.40;1.98;;;15.40;90.70;;;;;;5046954;28;20415;-69
2021/06/12 02:50:52;;;;;;;3.10;1.60;;;15.40;90.60;;;;;;5047073;28;20021;-69
2021/06/12 02:53:24;;;;;;;5.72;1.60;;;15.40;90.70;;;;;;5046758;28;20029;-69
2021/06/12 02:55:50;;;;;;;3.63;1.63;;;15.40;90.70;;;;;;5047365;28;20033;-69
2021/06/12 02:58:21;;;;;;;4.03;1.95;;;15.30;90.60;;;;;;5046649;28;20024;-68
2021/06/12 03:00:49;;;;;;;9.10;1.65;;;15.30;90.70;;;;;;5047159;28;20028;-68
2021/06/12 03:03:15;;;;;;;3.63;1.90;;;15.30;90.70;;;;;;5046967;28;20029;-68
2021/06/12 03:05:46;;;;;;;8.65;1.90;;;15.30;90.70;;;;;;5046591;28;20537;-68
2021/06/12 03:08:15;;;;;;;2.90;1.55;;;15.30;90.60;;;;;;5045114;28;20110;-69
2021/06/12 03:10:42;;;;;;;3.20;1.38;;;15.30;90.50;;;;;;5047185;28;20374;-68
2021/06/12 03:13:13;;;;;;;2.22;1.70;;;15.30;90.30;;;;;;5046661;28;20028;-68
2021/06/12 03:15:40;;;;;;;3.28;1.70;;;15.30;90.40;;;;;;5046460;28;20035;-68
2021/06/12 03:18:05;;;;;;;3.40;1.83;;;15.30;90.50;;;;;;5046984;28;20556;-68
2021/06/12 03:20:31;;;;;;;;;;;15.40;90.50;;;;;;5046739;28;20082;-69
2021/06/12 03:23:01;;;;;;;2.22;1.42;;;15.40;90.60;;;;;;5046364;28;20003;-68
2021/06/12 03:25:29;;;;;;;2.00;1.38;;;15.50;90.50;;;;;;5046579;28;20108;-68
2021/06/12 03:27:56;;;;;;;3.72;1.48;;;15.60;90.40;;;;;;5046564;28;20041;-69
2021/06/12 03:30:23;;;;;;;3.10;1.48;;;15.60;90.20;;;;;;5046216;28;20017;-69
2021/06/12 03:32:50;;;;;;;6.18;1.45;;;15.70;90.10;;;;;;5046629;28;20510;-69
2021/06/12 03:35:17;;;;;;;3.20;2.05;;;15.70;90.10;;;;;;5046093;28;20524;-68
2021/06/12 03:37:43;;;;;;;1.90;1.13;;;15.80;90.10;;;;;;5045125;28;20107;-69
2021/06/12 03:40:10;;;;;;;5.45;1.30;;;15.80;90.20;;;;;;5046034;28;20523;-68
2021/06/12 03:42:38;;;;;;;24.00;3.25;;;15.90;90.30;;;;;;5046419;28;20386;-68
2021/06/12 03:45:07;;;;;;;2.30;1.27;;;15.90;90.20;;;;;;5046496;28;20028;-69
2021/06/12 03:47:34;;;;;;;3.95;1.35;;;16.00;89.60;;;;;;5046054;28;20099;-69
2021/06/12 03:50:01;;;;;;;5.45;1.60;;;16.10;88.50;;;;;;5044809;28;20651;-68
2021/06/12 03:52:28;;;;;;;3.25;1.40;;;16.20;88.70;;;;;;5045706;28;20423;-68
2021/06/12 03:54:57;;;;;;;1.60;1.17;;;16.30;88.20;;;;;;5046435;28;20065;-70
2021/06/12 03:57:24;;;;;;;4.45;1.27;;;16.60;87.40;;;;;;5046271;28;20301;-69
2021/06/12 03:59:51;;;;;;;3.10;1.30;;;16.90;85.80;;;;;;5046381;28;20029;-68
2021/06/12 04:02:17;;;;;;;2.13;1.23;;;17.30;84.70;;;;;;5044745;28;20395;-69
2021/06/12 04:04:45;;;;;;;3.28;1.33;;;17.50;84.00;;;;;;5046030;28;20024;-69
2021/06/12 04:07:11;;;;;;;2.20;1.17;;;17.80;83.50;;;;;;5045878;28;20025;-68
2021/06/12 04:09:36;;;;;;;3.80;1.45;;;18.10;82.30;;;;;;5048815;28;20037;-69
2021/06/12 04:12:02;;;;;;;2.58;1.42;;;18.40;81.50;;;;;;5050327;28;20044;-68
2021/06/12 04:14:28;;;;;;;3.00;1.40;;;18.60;81.00;;;;;;5050363;28;20366;-69
2021/06/12 04:16:54;;;;;;;2.30;1.00;;;18.80;80.20;;;;;;5050333;28;20032;-69
2021/06/12 04:19:19;;;;;;;1.80;1.17;;;19.00;79.80;;;;;;5049745;28;20032;-69
2021/06/12 04:21:45;;;;;;;5.53;1.33;;;19.10;79.50;;;;;;5049899;28;20029;-69
2021/06/12 04:24:11;;;;;;;2.58;1.40;;;19.10;79.30;;;;;;5049652;28;20585;-68
2021/06/12 04:26:37;;;;;;;2.50;1.08;;;19.20;79.00;;;;;;5048845;28;20028;-69
2021/06/12 04:29:02;;;;;;;1.90;0.90;;;19.30;78.60;;;;;;5049703;28;20033;-69
2021/06/12 04:31:28;;;;;;;2.63;1.30;;;19.50;78.40;;;;;;5045607;28;20033;-69
2021/06/12 04:33:54;;;;;;;2.25;1.40;;;19.60;78.90;;;;;;5035754;28;20025;-69
2021/06/12 04:36:19;;;;;;;2.20;1.10;;;19.70;78.40;;;;;;5042203;28;20053;-69
2021/06/12 04:38:45;;;;;;;2.47;1.50;;;19.90;78.00;;;;;;5036451;28;20040;-68
2021/06/12 04:41:11;;;;;;;5.05;1.10;;;20.10;77.70;;;;;;5045940;28;20035;-68
2021/06/12 04:43:36;;;;;;;2.80;1.40;;;20.20;77.60;;;;;;5045710;28;20734;-69
2021/06/12 04:46:02;;;;;;;5.03;1.30;;;20.30;77.30;;;;;;5046195;28;20032;-69
2021/06/12 04:48:28;;;;;;;2.83;1.33;;;20.30;76.80;;;;;;5045958;28;20052;-70
2021/06/12 04:50:54;;;;;;;1.52;1.00;;;20.40;76.50;;;;;;5045713;28;20024;-68
2021/06/12 04:53:19;;;;;;;2.22;1.27;;;20.50;75.90;;;;;;5045550;28;20033;-70
2021/06/12 04:55:45;;;;;;;3.78;1.80;;;20.70;75.40;;;;;;5044432;28;20236;-69
2021/06/12 04:58:11;;;;;;;3.15;2.17;;;20.80;74.70;;;;;;5045731;28;20025;-68
2021/06/12 05:00:39;;;;;;;4.38;2.03;;;20.90;75.10;;;;;;5045511;28;20091;-69
2021/06/12 05:03:08;;;;;;;3.90;2.15;;;21.00;75.10;;;;;;5045741;28;20103;-69
2021/06/12 05:05:33;;;;;;;8.27;2.25;;;21.10;75.50;;;;;;5043619;28;20049;-68
2021/06/12 05:07:59;;;;;;;3.40;1.38;;;21.30;75.40;;;;;;5045950;28;20661;-69
2021/06/12 05:10:25;;;;;;;2.47;1.50;;;21.40;74.60;;;;;;5045501;28;20448;-69
2021/06/12 05:12:51;;;;;;;2.25;1.30;;;21.50;73.20;;;;;;5045758;28;20052;-68
2021/06/12 05:15:17;;;;;;;2.72;1.25;;;21.70;73.10;;;;;;5043555;28;20469;-69
2021/06/12 05:17:43;;;;;;;1.98;1.05;;;21.90;72.00;;;;;;5043931;28;20175;-69
2021/06/12 05:20:11;;;;;;;3.72;1.52;;;22.10;70.70;;;;;;5043599;28;20013;-69
2021/06/12 05:22:37;;;;;;;3.35;1.13;;;22.10;69.20;;;;;;5044909;28;20489;-68
2021/06/12 05:25:03;;;;;;;4.65;1.33;;;22.30;69.50;;;;;;5045440;28;20036;-69
2021/06/12 05:27:28;;;;;;;3.47;1.38;;;22.40;67.70;;;;;;5045186;28;20033;-68
2021/06/12 05:29:54;;;;;;;5.15;1.23;;;22.50;67.10;;;;;;5045414;28;20044;-69
2021/06/12 05:32:20;;;;;;;1.98;1.30;;;22.60;65.20;;;;;;5044520;28;20036;-69
2021/06/12 05:34:46;;;;;;;2.92;1.30;;;22.60;63.90;;;;;;5043808;28;20040;-69
2021/06/12 05:37:12;;;;;;;2.13;1.30;;;22.70;62.40;;;;;;5044713;28;20047;-69
2021/06/12 05:39:38;;;;;;;7.75;2.17;;;23.00;62.40;;;;;;5044712;28;20103;-69
2021/06/12 05:42:04;;;;;;;3.38;1.60;;;23.20;61.30;;;;;;5044914;28;20532;-70
2021/06/12 05:44:30;;;;;;;3.88;1.55;;;23.50;60.90;;;;;;5045042;28;20033;-71
2021/06/12 05:46:55;;;;;;;3.30;1.67;;;23.80;60.80;;;;;;5044975;28;20037;-69
2021/06/12 05:49:21;;;;;;;5.93;1.52;;;24.20;60.30;;;;;;5042648;28;20645;-69
2021/06/12 05:51:47;;;;;;;5.43;1.23;;;24.70;58.10;;;;;;5043719;28;20025;-70
2021/06/12 05:54:13;;;;;;;4.10;1.45;;;25.30;57.30;;;;;;5044794;28;20040;-70
2021/06/12 05:56:39;;;;;;;4.10;1.30;;;26.70;55.30;;;;;;5044398;28;20026;-70
2021/06/12 05:59:05;;;;;;;3.50;1.40;;;28.40;49.80;;;;;;5044748;28;20045;-70
2021/06/12 06:01:31;;;;;;;2.78;1.55;;;29.90;44.30;;;;;;5044558;28;20155;-69
2021/06/12 06:03:57;;;;;;;2.85;1.35;;;31.20;40.70;;;;;;5044921;28;20598;-69
2021/06/12 06:06:23;;;;;;;5.45;1.83;;;32.20;38.10;;;;;;5042416;28;20272;-69
2021/06/12 06:08:48;;;;;;;6.45;1.17;;;33.10;35.60;;;;;;5044444;28;20443;-68
2021/06/12 06:11:14;;;;;;;2.42;1.55;;;33.80;34.10;;;;;;5044306;28;20013;-68
2021/06/12 06:13:41;;;;;;;3.90;1.27;;;34.60;32.50;;;;;;5044096;28;20393;-68
2021/06/12 06:16:07;;;;;;;4.50;1.05;;;35.00;31.50;;;;;;5044412;28;20028;-68
2021/06/12 06:18:34;;;;;;;2.85;1.33;;;35.60;30.50;;;;;;5042557;28;20021;-69
2021/06/12 06:21:00;;;;;;;8.35;1.38;;;35.50;30.80;;;;;;5044204;28;20032;-69
2021/06/12 06:23:25;;;;;;;2.35;1.35;;;35.70;30.80;;;;;;5042657;28;20508;-69
2021/06/12 06:25:51;;;;;;;6.15;1.60;;;36.00;28.80;;;;;;5044420;28;20254;-68
2021/06/12 06:28:18;;;;;;;2.58;1.40;;;36.20;28.90;;;;;;5043655;28;20037;-69
2021/06/12 06:30:43;;;;;;;2.35;1.10;;;36.30;28.80;;;;;;5044713;28;20053;-69
2021/06/12 06:33:09;;;;;;;2.65;1.70;;;36.10;29.20;;;;;;5046887;28;20521;-69
2021/06/12 06:35:35;;;;;;;2.03;1.40;;;36.20;29.20;;;;;;5046657;28;20452;-69
2021/06/12 06:38:00;;;;;;;3.88;1.58;;;36.30;28.80;;;;;;5047529;28;20021;-69
2021/06/12 06:40:26;;;;;;;2.75;1.45;;;36.20;28.60;;;;;;5047265;28;20501;-69
2021/06/12 06:42:52;;;;;;;2.25;1.17;;;36.10;29.30;;;;;;5046190;28;20029;-68
2021/06/12 06:45:18;;;;;;;4.40;1.45;;;36.10;28.70;;;;;;5047844;28;20036;-68
2021/06/12 06:47:44;;;;;;;4.18;1.65;;;36.40;28.50;;;;;;5045853;28;20362;-69
2021/06/12 06:50:10;;;;;;;2.83;1.80;;;36.50;28.70;;;;;;5045248;28;20147;-68
2021/06/12 06:52:36;;;;;;;5.05;1.67;;;36.60;28.80;;;;;;5047420;28;20036;-69
2021/06/12 06:55:02;;;;;;;4.22;1.27;;;36.20;28.40;;;;;;5047448;28;20036;-69
2021/06/12 06:57:27;;;;;;;2.05;1.17;;;36.10;28.40;;;;;;5046707;28;20143;-68
2021/06/12 06:59:53;;;;;;;3.17;1.50;;;36.40;28.10;;;;;;5046969;28;20100;-69
2021/06/12 07:02:19;;;;;;;4.40;1.42;;;36.30;28.20;;;;;;5046472;28;20062;-69
2021/06/12 07:04:44;;;;;;;3.75;1.40;;;36.10;28.50;;;;;;5046254;28;20050;-69
2021/06/12 07:07:10;;;;;;;2.63;1.20;;;36.10;28.40;;;;;;5046582;28;20564;-69
2021/06/12 07:09:36;;;;;;;2.08;1.30;;;36.50;28.00;;;;;;5046524;28;20142;-68
2021/06/12 07:12:03;;;;;;;4.70;2.13;;;36.30;28.00;;;;;;5046935;28;20048;-68
2021/06/12 07:14:30;;;;;;;23.55;3.38;;;36.00;28.40;;;;;;5046867;28;20029;-68
2021/06/12 07:16:56;;;;;;;9.15;3.10;;;35.90;29.10;;;;;;5046611;28;20277;-69
2021/06/12 07:19:22;;;;;;;30.13;6.63;;;35.60;29.10;;;;;;5046167;28;20060;-69
2021/06/12 07:21:48;;;;;;;5.43;1.80;;;35.70;29.50;;;;;;5046381;28;20033;-68
2021/06/12 07:24:14;;;;;;;14.85;2.28;;;35.90;29.10;;;;;;5046894;28;20032;-68
2021/06/12 07:26:42;;;;;;;2.35;1.20;;;35.90;28.70;;;;;;5046706;28;20079;-69
2021/06/12 07:29:09;;;;;;;3.13;1.20;;;36.00;28.90;;;;;;5046154;28;20130;-68
2021/06/12 07:31:37;;;;;;;4.57;1.13;;;36.00;28.30;;;;;;5046520;28;20417;-69
2021/06/12 07:34:03;;;;;;;2.08;1.25;;;36.20;28.40;;;;;;5045698;28;20511;-69
2021/06/12 07:36:29;;;;;;;1.98;1.10;;;36.20;27.50;;;;;;5046541;28;20025;-69
2021/06/12 07:38:54;;;;;;;5.68;1.20;;;35.90;28.40;;;;;;5046371;28;20044;-69
2021/06/12 07:41:20;;;;;;;4.40;1.20;;;36.10;28.40;;;;;;5045914;28;20024;-69
2021/06/12 07:43:46;;;;;;;2.25;0.90;;;35.90;28.90;;;;;;5045669;28;20052;-68
2021/06/12 07:46:11;;;;;;;2.35;1.10;;;35.80;28.40;;;;;;5046726;28;20501;-68
2021/06/12 07:48:37;;;;;;;3.95;0.95;;;36.10;28.70;;;;;;5045296;28;20782;-69
2021/06/12 07:51:03;;;;;;;2.65;1.02;;;36.00;28.90;;;;;;5046287;28;20036;-69
2021/06/12 07:53:29;;;;;;;2.25;1.00;;;35.70;29.50;;;;;;5045686;28;20021;-69
2021/06/12 07:55:54;;;;;;;2.80;0.88;;;35.70;29.10;;;;;;5046150;28;20028;-69
2021/06/12 07:58:20;;;;;;;3.33;1.20;;;35.60;29.20;;;;;;5044952;28;20367;-69
2021/06/12 08:00:46;;;;;;;2.22;0.85;;;35.60;29.00;;;;;;5046149;28;20490;-68
2021/06/12 08:03:11;;;;;;;4.05;0.93;;;35.80;29.20;;;;;;5045397;28;20033;-69
2021/06/12 08:05:37;;;;;;;3.45;0.93;;;36.00;29.60;;;;;;5045980;28;20299;-69
2021/06/12 08:08:03;;;;;;;2.55;0.88;;;35.70;29.40;;;;;;5044770;28;20049;-68
2021/06/12 08:10:28;;;;;;;4.60;1.00;;;35.70;29.20;;;;;;5045668;28;20035;-69
2021/06/12 08:12:54;;;;;;;1.67;1.05;;;35.70;28.90;;;;;;5046014;28;20025;-69
2021/06/12 08:15:20;;;;;;;1.25;0.90;;;35.40;29.40;;;;;;5045897;28;20029;-69
2021/06/12 08:17:45;;;;;;;2.35;1.00;;;35.50;29.20;;;;;;5045399;28;20412;-69
2021/06/12 08:20:11;;;;;;;1.58;0.80;;;35.70;29.40;;;;;;5045856;28;20033;-69
2021/06/12 08:22:37;;;;;;;2.40;0.95;;;35.90;29.80;;;;;;5045920;28;20029;-68
2021/06/12 08:25:05;;;;;;;2.28;1.10;;;35.90;29.80;;;;;;5046018;28;20040;-68
2021/06/12 08:27:30;;;;;;;1.92;1.65;;;36.00;29.20;;;;;;5045834;28;20833;-69
2021/06/12 08:29:56;;;;;;;1.92;1.42;;;36.00;29.70;;;;;;5045858;28;20029;-68
2021/06/12 08:32:22;;;;;;;3.05;1.35;;;35.90;29.60;;;;;;5045610;28;20083;-69
2021/06/12 08:34:47;;;;;;;6.40;1.02;;;36.00;29.00;;;;;;5045399;28;20056;-69
2021/06/12 08:37:13;;;;;;;3.40;1.20;;;35.80;29.30;;;;;;5045831;28;20025;-68
2021/06/12 08:39:39;;;;;;;2.47;1.23;;;35.80;29.20;;;;;;5045708;28;20031;-69
2021/06/12 08:42:05;;;;;;;2.97;1.10;;;35.80;29.40;;;;;;5045438;28;20116;-68
2021/06/12 08:44:33;;;;;;;2.20;1.67;;;35.60;30.00;;;;;;5045925;28;20033;-66
2021/06/12 08:46:59;;;;;;;2.45;0.85;;;35.70;29.70;;;;;;5043425;28;20049;-69
2021/06/12 08:49:25;;;;;;;4.13;1.30;;;35.70;29.40;;;;;;5045418;28;20044;-68
2021/06/12 08:51:50;;;;;;;2.17;0.90;;;35.50;30.10;;;;;;5045256;28;20040;-68
2021/06/12 08:54:18;;;;;;;3.08;1.00;;;35.50;29.40;;;;;;5045966;28;20541;-68
2021/06/12 08:56:45;;;;;;;2.08;1.15;;;35.90;28.90;;;;;;5049038;28;20057;-68
2021/06/12 08:59:12;;;;;;;1.67;1.20;;;35.60;29.90;;;;;;5049013;28;20017;-67
2021/06/12 09:01:38;;;;;;;1.60;1.05;;;35.60;29.60;;;;;;5048915;28;20116;-68
2021/06/12 09:04:04;;;;;;;3.45;1.00;;;35.60;29.60;;;;;;5048794;28;20021;-68
2021/06/12 09:06:30;;;;;;;1.67;1.15;;;35.70;29.80;;;;;;5049188;28;20033;-68
2021/06/12 09:08:57;;;;;;;2.72;1.10;;;35.70;28.80;;;;;;5049251;28;20041;-69
2021/06/12 09:11:23;;;;;;;7.70;1.42;;;35.70;29.20;;;;;;5048692;28;20025;-68
2021/06/12 09:13:52;;;;;;;4.00;1.00;;;35.40;29.80;;;;;;5049017;28;20502;-69
2021/06/12 09:16:22;;;;;;;3.03;1.05;;;35.50;30.20;;;;;;5049034;28;20040;-68
2021/06/12 09:18:49;;;;;;;4.43;1.15;;;35.80;29.50;;;;;;5048711;28;20033;-68
2021/06/12 09:21:33;;;;;;;4.38;1.05;;;35.70;30.20;;;;;;5048542;28;20456;-68
2021/06/12 09:24:00;;;;;;;2.70;1.10;;;35.90;29.70;;;;;;5049012;28;20132;-68
2021/06/12 09:26:47;;;;;;;4.72;1.30;;;35.80;29.60;;;;;;5048413;28;20025;-69
2021/06/12 09:29:18;;;;;;;2.17;1.10;;;36.00;29.90;;;;;;5048256;28;20041;-69
2021/06/12 09:31:48;;;;;;;2.33;0.90;;;36.10;29.90;;;;;;5048067;28;20457;-68
2021/06/12 09:34:16;;;;;;;6.28;1.40;;;36.10;30.20;;;;;;5048360;28;20032;-69
2021/06/12 09:36:42;;;;;;;2.65;1.15;;;36.20;29.70;;;;;;5048309;28;20059;-68
2021/06/12 09:39:17;;;;;;;1.25;0.85;;;36.00;30.20;;;;;;5048497;28;20033;-68
2021/06/12 09:41:51;;;;;;;7.80;0.90;;;36.40;30.00;;;;;;5048213;28;20402;-68
2021/06/12 09:44:40;;;;;;;6.40;1.27;;;36.40;29.30;;;;;;5048213;28;20052;-68
2021/06/12 09:47:12;;;;;;;3.03;1.15;;;36.10;29.80;;;;;;5046829;28;20080;-68
2021/06/12 09:49:39;;;;;;;2.58;1.20;;;35.20;29.80;;;;;;5048328;28;20029;-69
2021/06/12 09:52:09;;;;;;;6.20;1.20;;;34.50;31.30;;;;;;5048069;28;20512;-68
2021/06/12 09:54:39;;;;;;;3.25;1.05;;;34.30;32.80;;;;;;5046985;28;20512;-68
2021/06/12 09:57:07;;;;;;;2.42;1.05;;;34.10;32.30;;;;;;5048353;28;20684;-68
2021/06/12 10:00:03;;;;;;;2.20;0.90;;;33.90;33.50;;;;;;5047782;28;20512;-68
2021/06/12 10:02:47;;;;;;;4.55;1.48;;;33.80;32.70;;;;;;5046713;28;20045;-68
2021/06/12 10:05:16;;;;;;;2.78;1.00;;;33.50;33.60;;;;;;5046659;28;20032;-68
2021/06/12 10:07:42;;;;;;;4.70;1.25;;;33.30;33.60;;;;;;5047117;28;20040;-69
2021/06/12 10:10:13;;;;;;;8.30;1.25;;;32.90;33.10;;;;;;5047572;28;20029;-69
2021/06/12 10:12:40;;;;;;;2.75;1.20;;;32.50;34.10;;;;;;5047904;28;20021;-69
2021/06/12 10:15:08;;;;;;;2.53;1.10;;;31.80;34.40;;;;;;5047767;28;20021;-70
2021/06/12 10:17:43;;;;;;;3.45;1.25;;;31.50;34.80;;;;;;5046378;28;20506;-69
2021/06/12 10:20:10;;;;;;;4.13;1.60;;;31.30;35.20;;;;;;5047950;28;20021;-69
2021/06/12 10:22:36;;;;;;;2.55;0.93;;;30.90;37.50;;;;;;5047364;28;20087;-70
2021/06/12 10:25:03;;;;;;;6.00;1.30;;;30.80;38.10;;;;;;5047642;28;20025;-70
2021/06/12 10:27:29;;;;;;;1.95;1.40;;;30.60;38.70;;;;;;5047404;28;20048;-70
2021/06/12 10:29:55;;;;;;;1.58;1.05;;;30.10;39.10;;;;;;5047536;28;20490;-69
2021/06/12 10:32:22;;;;;;;4.38;1.35;;;29.70;39.10;;;;;;5047358;28;20409;-69
2021/06/12 10:34:52;;;;;;;2.28;1.30;;;29.50;39.30;;;;;;5047395;28;20060;-69
2021/06/12 10:37:18;;;;;;;2.17;1.35;;;29.40;39.20;;;;;;5047433;28;20475;-70
2021/06/12 10:39:44;;;;;;;4.53;1.30;;;29.40;40.10;;;;;;5047290;28;20029;-69
2021/06/12 10:42:12;;;;;;;6.47;1.30;;;29.50;40.90;;;;;;5047393;28;20033;-68
2021/06/12 10:44:39;;;;;;;5.00;1.63;;;29.70;40.40;;;;;;5045647;28;20032;-68
2021/06/12 10:47:04;;;;;;;4.20;1.13;;;29.70;38.60;;;;;;5045613;28;20041;-68
2021/06/12 10:49:34;;;;;;;6.70;1.63;;;29.50;39.50;;;;;;5046823;28;20029;-69
2021/06/12 10:52:06;;;;;;;3.28;1.40;;;29.50;39.70;;;;;;5047163;28;20025;-69
2021/06/12 10:54:37;;;;;;;4.05;0.80;;;29.50;39.70;;;;;;5046921;28;20053;-68
2021/06/12 10:57:11;;;;;;;8.88;1.33;;;29.40;40.20;;;;;;5047297;28;20028;-68
2021/06/12 10:59:37;;;;;;;1.73;1.20;;;29.50;39.50;;;;;;5047029;28;20025;-69
2021/06/12 11:02:15;;;;;;;2.70;1.00;;;29.70;39.10;;;;;;5046933;28;20041;-68
2021/06/12 11:04:49;;;;;;;7.30;0.88;;;29.80;39.20;;;;;;5046720;28;20028;-69
2021/06/12 11:07:25;;;;;;;2.92;1.50;;;29.90;38.70;;;;;;5046761;28;20040;-70
2021/06/12 11:09:51;;;;;;;4.97;1.67;;;29.80;39.90;;;;;;5046856;28;20405;-69
2021/06/12 11:12:16;;;;;;;5.55;1.27;;;29.50;40.40;;;;;;5046663;28;20497;-69
2021/06/12 11:15:13;;;;;;;2.50;1.42;;;29.20;39.50;;;;;;5046524;28;20029;-69
2021/06/12 11:17:43;;;;;;;3.10;1.20;;;29.20;40.10;;;;;;5046592;28;20029;-70
2021/06/12 11:20:13;;;;;;;1.85;1.30;;;29.10;40.00;;;;;;5045114;28;20449;-69
2021/06/12 11:22:52;;;;;;;1.40;1.00;;;29.20;40.20;;;;;;5046391;28;20163;-69
2021/06/12 11:25:17;;;;;;;3.50;1.38;;;29.20;40.00;;;;;;5046477;28;20509;-69
2021/06/12 11:27:51;;;;;;;1.92;0.93;;;29.40;39.30;;;;;;5046232;28;20040;-69
2021/06/12 11:30:17;;;;;;;1.63;1.10;;;29.50;39.50;;;;;;5046457;28;20112;-69
2021/06/12 11:32:59;;;;;;;1.35;0.88;;;29.30;35.00;;;;;;5046001;28;20109;-69
2021/06/12 11:35:44;;;;;;;1.60;0.95;;;29.20;38.30;;;;;;5045959;28;20251;-69
2021/06/12 11:38:20;;;;;;;3.65;1.10;;;29.00;37.20;;;;;;5046147;28;20069;-70
2021/06/12 11:40:53;;;;;;;2.28;1.48;;;29.00;38.70;;;;;;5046433;28;20064;-69
2021/06/12 11:43:40;;;;;;;2.40;1.00;;;29.10;40.20;;;;;;5046333;28;20035;-69
2021/06/12 11:46:13;;;;;;;1.52;0.80;;;29.30;38.70;;;;;;5044675;28;20033;-69
2021/06/12 11:48:49;;;;;;;1.55;1.10;;;29.40;39.00;;;;;;5045987;28;20044;-69
2021/06/12 11:51:25;;;;;;;1.90;1.00;;;29.50;38.50;;;;;;5045280;28;20474;-70
2021/06/12 11:54:07;;;;;;;2.00;1.40;;;29.70;37.50;;;;;;5045260;28;20044;-69
2021/06/12 11:56:38;;;;;;;2.80;1.40;;;29.70;37.20;;;;;;5045673;28;20471;-70
2021/06/12 11:59:05;;;;;;;3.33;1.17;;;29.70;36.80;;;;;;5046379;28;20458;-69
2021/06/12 12:01:43;;;;;;;1.08;0.90;;;29.70;38.40;;;;;;5045287;28;20029;-69
2021/06/12 12:04:14;;;;;;;2.85;1.25;;;29.80;37.30;;;;;;5044967;28;20041;-69
2021/06/12 12:07:07;;;;;;;3.13;1.17;;;29.70;38.10;;;;;;5046152;28;20139;-69
2021/06/12 12:09:41;;;;;;;4.30;1.00;;;29.60;38.00;;;;;;5044898;28;20040;-69
2021/06/12 12:12:10;;;;;;;1.85;1.10;;;29.70;37.60;;;;;;5045610;28;20025;-69
2021/06/12 12:14:37;;;;;;;2.05;1.40;;;29.90;37.60;;;;;;5046038;28;20232;-69
2021/06/12 12:17:05;;;;;;;3.95;1.40;;;30.00;36.70;;;;;;5045542;28;20112;-69
2021/06/12 12:19:31;;;;;;;1.63;1.20;;;30.20;36.70;;;;;;5045454;28;20116;-70
2021/06/12 12:21:59;;;;;;;3.58;1.70;;;30.40;37.10;;;;;;5045515;28;20104;-69
2021/06/12 12:24:32;;;;;;;4.70;1.17;;;30.40;36.40;;;;;;5046150;28;20402;-70
2021/06/12 12:27:09;;;;;;;1.30;1.20;;;30.30;36.60;;;;;;5046047;28;20021;-70
2021/06/12 12:29:39;;;;;;;7.90;1.58;;;30.20;36.90;;;;;;5046474;28;20686;-69
2021/06/12 12:32:06;;;;;;;4.60;1.30;;;30.10;37.30;;;;;;5049358;28;20021;-69
2021/06/12 12:34:37;;;;;;;1.98;1.10;;;29.90;37.20;;;;;;5049886;28;20520;-68
2021/06/12 12:37:04;;;;;;;2.40;1.05;;;29.80;38.10;;;;;;5049577;28;20493;-69
2021/06/12 12:39:44;;;;;;;3.58;1.35;;;29.90;38.80;;;;;;5049311;28;20029;-68
2021/06/12 12:42:19;;;;;;;3.13;1.40;;;30.00;39.00;;;;;;5049345;28;20068;-69
2021/06/12 12:44:47;;;;;;;2.65;1.30;;;30.00;39.10;;;;;;5049452;28;20048;-69
2021/06/12 12:47:17;;;;;;;4.47;1.10;;;29.80;39.30;;;;;;5048815;28;20037;-69
2021/06/12 12:49:44;;;;;;;8.40;1.63;;;29.70;39.90;;;;;;5049561;28;20041;-69
2021/06/12 12:52:24;;;;;;;2.60;1.35;;;29.50;40.20;;;;;;5049196;28;20021;-70
2021/06/12 12:55:04;;;;;;;1.98;1.40;;;29.30;41.20;;;;;;5049448;28;20029;-70